Аэропорт
Игнатьево (UHBB)

 UHBB / BQS
ЗЦ Хабаровск
Хабаровск (UHHH)
Хабаровск (UHHH)
 50.42540, 127.41200  / 638 ft

 UHBB 250900Z 27001MPS CAVOK M03/M14 Q1026 R36/090060 NOSIG RMK QFE752/1003
 TAF UHBB 250735Z 2509/2609 35003MPS CAVOK TEMPO 2600/2609 33003G08MPS
uhbb_aip_1605, UHBB_j_0220
показать схемы
Название сценария Тип сценария Flight Simulator 9 Flight Simulator X Prepar3D v2 Prepar3D v3 Prepar3D v4 xPlane
UHBB P3Dv4 бесплатный
uhbb-scenery-fs9-1406 бесплатный
uhbb-scenery-xpl-1209 бесплатный


2020 © VATRUS division (Privacy Policy)